Time;durP1;ratioP1;P1;durP2;ratioP2;P2;SDS_P1;SDS_P2;PMS_P1;PMS_P2;Temp;Humidity;BMP_temperature;BMP_pressure;BME280_temperature;BME280_humidity;BME280_pressure;Samples;Min_cycle;Max_cycle;Signal;HPM_P1;HPM_P2
2022/05/04 00:00:49;;;;;;;6.00;1.73;;;9.00;98.90;;;;;;5028163;28;20037;-69
2022/05/04 00:03:16;;;;;;;7.05;1.75;;;9.00;99.00;;;;;;5021107;28;20466;-70
2022/05/04 00:05:41;;;;;;;7.72;1.60;;;9.10;99.10;;;;;;5006513;28;20493;-70
2022/05/04 00:08:07;;;;;;;7.50;1.90;;;9.10;99.00;;;;;;5009742;28;20089;-70
2022/05/04 00:10:34;;;;;;;13.43;1.85;;;9.00;99.00;;;;;;5012787;28;20043;-70
2022/05/04 00:13:00;;;;;;;3.75;1.27;;;9.10;99.30;;;;;;5014500;28;20080;-70
2022/05/04 00:15:26;;;;;;;9.98;1.88;;;9.00;99.10;;;;;;4999464;28;20520;-69
2022/05/04 00:17:54;;;;;;;7.95;1.80;;;9.10;99.20;;;;;;5019125;28;20045;-69
2022/05/04 00:20:20;;;;;;;9.50;1.90;;;9.00;99.00;;;;;;5017424;28;20060;-70
2022/05/04 00:22:46;;;;;;;2.87;1.30;;;9.00;98.90;;;;;;5017679;28;20040;-70
2022/05/04 00:25:31;;;;;;;6.27;1.47;;;9.00;99.00;;;;;;5064097;22;20499;-69
2022/05/04 00:27:58;;;;;;;6.43;1.38;;;9.00;98.70;;;;;;5028907;28;20056;-68
2022/05/04 00:30:24;;;;;;;7.18;1.85;;;9.00;99.20;;;;;;5020595;28;20048;-69
2022/05/04 00:32:50;;;;;;;9.00;2.07;;;9.10;99.30;;;;;;5019732;28;20453;-68
2022/05/04 00:35:15;;;;;;;6.00;1.60;;;9.00;99.50;;;;;;5029544;28;20045;-68
2022/05/04 00:37:43;;;;;;;8.83;1.47;;;9.00;99.50;;;;;;5009291;28;20041;-68
2022/05/04 00:40:09;;;;;;;7.70;1.60;;;9.00;99.40;;;;;;5007260;28;20081;-69
2022/05/04 00:42:35;;;;;;;7.07;1.23;;;9.00;99.70;;;;;;4994129;28;20116;-68
2022/05/04 00:45:01;;;;;;;3.63;1.37;;;9.00;99.90;;;;;;5005992;28;20129;-65
2022/05/04 00:47:26;;;;;;;15.23;2.13;;;9.00;99.90;;;;;;5005689;28;20045;-67
2022/05/04 00:49:52;;;;;;;6.67;1.70;;;9.00;99.90;;;;;;4994478;28;20057;-67
2022/05/04 00:52:18;;;;;;;10.90;1.67;;;9.00;99.90;;;;;;5018501;28;20060;-67
2022/05/04 00:54:46;;;;;;;10.00;1.40;;;9.00;99.50;;;;;;5020773;28;20124;-68
2022/05/04 00:57:14;;;;;;;9.30;1.73;;;9.00;99.40;;;;;;5022702;28;20065;-67
2022/05/04 00:59:41;;;;;;;10.00;1.55;;;9.00;99.10;;;;;;5021370;28;20128;-67
2022/05/04 01:02:07;;;;;;;8.10;1.30;;;9.00;99.00;;;;;;5024776;28;20033;-67
2022/05/04 01:04:33;;;;;;;6.93;1.27;;;9.00;99.10;;;;;;5024766;28;20338;-67
2022/05/04 01:06:58;;;;;;;5.70;1.17;;;9.00;98.80;;;;;;5010954;28;20041;-67
2022/05/04 01:09:25;;;;;;;6.90;1.40;;;9.00;99.10;;;;;;5014268;28;20457;-67
2022/05/04 01:11:50;;;;;;;8.30;1.70;;;9.00;99.20;;;;;;5014268;28;20402;-67
2022/05/04 01:14:17;;;;;;;12.68;1.85;;;9.00;99.30;;;;;;5019547;28;20080;-67
2022/05/04 01:16:48;;;;;;;;;;;9.00;99.50;;;;;;5019538;28;20038;-67
2022/05/04 01:19:14;;;;;;;8.35;1.52;;;8.90;99.90;;;;;;5020341;28;20008;-67
2022/05/04 01:21:40;;;;;;;6.63;1.38;;;8.90;99.60;;;;;;5019125;28;20300;-67
2022/05/04 01:24:08;;;;;;;12.82;1.73;;;8.90;99.40;;;;;;5023165;28;20228;-67
2022/05/04 01:26:34;;;;;;;5.13;1.38;;;8.90;99.20;;;;;;5022770;28;20037;-67
2022/05/04 01:29:01;;;;;;;7.55;1.48;;;8.90;99.00;;;;;;5006522;28;20125;-67
2022/05/04 01:31:27;;;;;;;4.00;1.30;;;8.90;98.80;;;;;;5001350;28;20131;-67
2022/05/04 01:33:52;;;;;;;5.03;1.53;;;8.90;98.80;;;;;;4999177;28;20129;-67
2022/05/04 01:36:18;;;;;;;5.33;1.77;;;8.90;99.20;;;;;;4998118;28;20394;-67
2022/05/04 01:38:44;;;;;;;5.27;1.53;;;8.90;99.40;;;;;;4995397;28;20099;-67
2022/05/04 01:42:02;;;;;;;9.87;1.93;;;8.90;99.50;;;;;;5010753;28;21001;-67
2022/05/04 01:43:55;;;;;;;5.85;1.60;;;8.90;99.80;;;;;;5020702;28;21800;-67
2022/05/04 01:46:21;;;;;;;3.37;1.13;;;8.90;99.90;;;;;;5000379;28;20461;-67
2022/05/04 01:48:48;;;;;;;6.00;1.63;;;8.90;99.90;;;;;;5017192;28;20131;-67
2022/05/04 01:51:13;;;;;;;4.43;1.65;;;8.90;99.90;;;;;;5014016;28;20163;-68
2022/05/04 01:53:40;;;;;;;8.47;1.70;;;8.90;99.90;;;;;;5021879;28;20155;-67
2022/05/04 01:56:07;;;;;;;8.45;1.55;;;8.90;99.90;;;;;;5020995;28;20213;-68
2022/05/04 01:58:33;;;;;;;4.05;1.83;;;8.90;99.90;;;;;;5024175;28;20056;-67
2022/05/04 02:00:59;;;;;;;8.18;1.80;;;8.90;99.90;;;;;;5006641;28;20044;-67
2022/05/04 02:03:25;;;;;;;6.60;1.65;;;8.90;99.90;;;;;;5015592;28;20430;-67
2022/05/04 02:05:51;;;;;;;5.83;1.30;;;8.90;99.90;;;;;;5019557;28;20052;-67
2022/05/04 02:08:17;;;;;;;8.67;2.40;;;8.90;99.70;;;;;;5021974;28;20052;-67
2022/05/04 02:10:43;;;;;;;7.20;1.35;;;8.90;99.50;;;;;;5026362;28;20280;-67
2022/05/04 02:13:08;;;;;;;7.57;1.48;;;8.90;99.60;;;;;;5002755;28;20037;-67
2022/05/04 02:15:37;;;;;;;4.43;1.27;;;8.90;99.60;;;;;;5017811;28;20038;-67
2022/05/04 02:18:03;;;;;;;9.98;1.77;;;8.90;99.50;;;;;;5020516;28;20049;-67
2022/05/04 02:20:28;;;;;;;5.18;1.38;;;8.90;99.70;;;;;;5024871;28;20195;-68
2022/05/04 02:22:54;;;;;;;8.00;2.07;;;8.90;99.90;;;;;;5015386;28;20515;-67
2022/05/04 02:25:20;;;;;;;7.38;1.60;;;8.90;99.90;;;;;;5020593;28;20277;-67
2022/05/04 02:27:46;;;;;;;3.87;1.93;;;8.90;99.90;;;;;;4982325;28;20045;-67
2022/05/04 02:30:13;;;;;;;6.00;1.40;;;8.90;99.90;;;;;;5014479;28;20041;-67
2022/05/04 02:32:39;;;;;;;8.02;2.00;;;8.90;99.90;;;;;;5003267;28;20570;-67
2022/05/04 02:37:56;;;;;;;9.70;1.58;;;8.90;99.80;;;;;;5017729;28;20128;-67
2022/05/04 02:40:21;;;;;;;6.15;2.13;;;8.80;99.90;;;;;;5013832;28;20072;-67
2022/05/04 02:42:47;;;;;;;6.88;1.45;;;8.90;99.90;;;;;;5019920;28;20079;-67
2022/05/04 02:45:14;;;;;;;8.93;1.80;;;8.80;99.90;;;;;;5019660;28;20642;-68
2022/05/04 02:47:40;;;;;;;7.38;1.77;;;8.80;99.90;;;;;;5015806;28;20046;-67
2022/05/04 02:50:06;;;;;;;10.77;1.93;;;8.80;99.90;;;;;;5021620;28;20037;-67
2022/05/04 02:52:33;;;;;;;;;;;8.80;99.90;;;;;;5019390;28;20349;-67
2022/05/04 02:54:59;;;;;;;9.50;1.60;;;8.80;99.80;;;;;;5022567;28;20305;-67
2022/05/04 02:57:24;;;;;;;6.17;1.73;;;8.80;99.90;;;;;;5015325;28;20242;-67
2022/05/04 02:59:50;;;;;;;3.83;1.33;;;8.80;99.90;;;;;;5004849;28;20037;-67
2022/05/04 03:02:28;;;;;;;5.53;2.17;;;8.80;99.90;;;;;;5016788;28;20442;-67
2022/05/04 03:04:58;;;;;;;12.52;2.63;;;8.80;99.90;;;;;;5020902;28;20034;-67
2022/05/04 03:07:24;;;;;;;7.50;1.60;;;8.80;99.90;;;;;;5010092;28;20501;-68
2022/05/04 03:09:50;;;;;;;3.93;1.20;;;8.80;99.90;;;;;;5016930;28;20034;-67
2022/05/04 03:12:16;;;;;;;13.15;1.50;;;8.70;99.80;;;;;;5012629;28;20052;-67
2022/05/04 03:14:43;;;;;;;9.88;2.28;;;8.70;99.10;;;;;;5015484;28;20296;-67
2022/05/04 03:17:08;;;;;;;4.70;1.85;;;8.70;99.20;;;;;;5020020;28;20082;-67
2022/05/04 03:19:34;;;;;;;7.30;1.87;;;8.70;99.40;;;;;;5016491;28;20041;-67
2022/05/04 03:21:59;;;;;;;7.70;1.43;;;8.70;99.10;;;;;;4997925;28;20037;-67
2022/05/04 03:24:25;;;;;;;6.13;1.80;;;8.70;98.80;;;;;;5020541;28;20704;-67
2022/05/04 03:26:50;;;;;;;6.57;2.00;;;8.70;98.70;;;;;;5014852;28;20064;-67
2022/05/04 03:29:16;;;;;;;9.07;1.63;;;8.60;98.70;;;;;;5013435;28;20414;-67
2022/05/04 03:31:42;;;;;;;11.37;2.33;;;8.60;99.30;;;;;;5013134;28;20029;-67
2022/05/04 03:34:07;;;;;;;4.10;1.40;;;8.60;99.20;;;;;;5015029;28;20106;-67
2022/05/04 03:36:35;;;;;;;9.30;1.47;;;8.60;99.20;;;;;;5016375;28;20052;-66
2022/05/04 03:39:01;;;;;;;6.03;1.67;;;8.60;99.60;;;;;;5022187;28;20056;-67
2022/05/04 03:41:27;;;;;;;3.03;1.40;;;8.60;99.70;;;;;;5021556;28;20053;-68
2022/05/04 03:43:53;;;;;;;10.60;1.73;;;8.60;99.90;;;;;;5018869;28;20693;-67
2022/05/04 03:46:20;;;;;;;8.43;2.67;;;8.70;99.90;;;;;;5020956;28;20041;-67
2022/05/04 03:48:50;;;;;;;5.03;1.35;;;8.60;99.80;;;;;;5018839;28;20422;-67
2022/05/04 03:51:19;;;;;;;14.13;1.90;;;8.70;99.90;;;;;;5021427;28;20060;-68
2022/05/04 03:53:45;;;;;;;9.25;2.03;;;8.70;99.80;;;;;;5010377;28;20052;-67
2022/05/04 03:56:11;;;;;;;10.95;3.00;;;8.60;99.90;;;;;;5018828;28;20419;-67
2022/05/04 03:58:37;;;;;;;7.82;2.08;;;8.60;99.90;;;;;;5017349;28;20042;-67
2022/05/04 04:01:05;;;;;;;7.90;1.73;;;8.60;99.90;;;;;;4998868;28;20045;-67
2022/05/04 04:03:30;;;;;;;;;;;8.60;99.90;;;;;;5020127;28;20052;-67
2022/05/04 04:05:56;;;;;;;8.20;1.65;;;8.60;99.90;;;;;;5020182;28;20308;-66
2022/05/04 04:08:22;;;;;;;3.50;1.37;;;8.60;99.90;;;;;;5010388;28;20394;-67
2022/05/04 04:10:49;;;;;;;5.45;1.67;;;8.60;99.90;;;;;;5011843;28;20040;-67
2022/05/04 04:13:15;;;;;;;10.00;2.10;;;8.60;99.90;;;;;;4993004;28;20042;-67
2022/05/04 04:15:41;;;;;;;6.90;1.67;;;8.60;99.90;;;;;;5015631;28;20061;-67
2022/05/04 04:18:07;;;;;;;5.93;1.33;;;8.70;99.90;;;;;;5017020;28;20165;-67
2022/05/04 04:23:17;;;;;;;8.45;1.50;;;8.70;99.90;;;;;;5011214;28;20056;-66
2022/05/04 04:25:43;;;;;;;9.18;1.42;;;8.70;99.90;;;;;;5018660;28;20410;-67
2022/05/04 04:28:09;;;;;;;6.30;1.48;;;8.60;99.90;;;;;;5004820;28;20042;-67
2022/05/04 04:30:37;;;;;;;8.52;1.48;;;8.60;99.90;;;;;;5019257;28;20095;-67
2022/05/04 04:33:04;;;;;;;4.85;1.70;;;8.70;99.90;;;;;;5024185;28;20041;-67
2022/05/04 04:35:29;;;;;;;6.13;1.90;;;8.70;99.90;;;;;;5019493;28;21116;-67
2022/05/04 04:37:55;;;;;;;4.73;1.50;;;8.60;99.90;;;;;;5019482;28;20132;-67
2022/05/04 04:40:20;;;;;;;11.67;1.53;;;8.70;99.90;;;;;;5029849;28;20044;-67
2022/05/04 04:42:46;;;;;;;10.43;1.90;;;8.60;99.90;;;;;;5023687;28;20041;-67
2022/05/04 04:45:11;;;;;;;7.43;1.87;;;8.60;99.90;;;;;;5023192;28;20152;-67
2022/05/04 04:47:37;;;;;;;4.80;1.93;;;8.60;99.90;;;;;;5023710;28;20354;-67
2022/05/04 04:50:03;;;;;;;11.80;1.57;;;8.60;99.90;;;;;;5027133;28;20137;-66
2022/05/04 04:52:28;;;;;;;12.95;2.83;;;8.70;99.90;;;;;;5026185;28;20084;-67
2022/05/04 04:54:54;;;;;;;6.97;2.07;;;8.70;99.90;;;;;;5019607;28;20083;-67
2022/05/04 04:57:20;;;;;;;8.93;1.47;;;8.70;99.90;;;;;;5002470;28;20044;-66
2022/05/04 04:59:48;;;;;;;10.50;1.73;;;8.70;99.90;;;;;;5021311;28;20343;-67
2022/05/04 05:02:14;;;;;;;4.90;1.48;;;8.60;99.80;;;;;;5020196;28;20406;-67
2022/05/04 05:04:40;;;;;;;5.63;1.40;;;8.70;99.40;;;;;;5022434;28;20033;-68
2022/05/04 05:07:06;;;;;;;12.17;1.70;;;8.60;99.70;;;;;;5009733;28;20045;-66
2022/05/04 05:09:31;;;;;;;10.63;2.00;;;8.60;99.90;;;;;;4995907;28;20481;-67
2022/05/04 05:11:57;;;;;;;11.20;1.73;;;8.70;99.80;;;;;;5017597;28;20091;-67
2022/05/04 05:17:06;;;;;;;5.38;1.90;;;8.70;99.90;;;;;;5004063;28;20099;-67
2022/05/04 05:19:32;;;;;;;5.20;1.60;;;8.70;99.90;;;;;;5014523;28;20045;-67
2022/05/04 05:21:57;;;;;;;9.57;1.70;;;8.70;99.90;;;;;;5016983;28;20475;-67
2022/05/04 05:24:23;;;;;;;11.23;1.83;;;8.80;99.90;;;;;;5025738;28;20474;-67
2022/05/04 05:26:48;;;;;;;5.47;1.87;;;8.80;99.90;;;;;;5024014;28;20038;-67
2022/05/04 05:29:14;;;;;;;4.77;1.40;;;8.80;99.90;;;;;;5006376;28;20100;-67
2022/05/04 05:31:40;;;;;;;6.60;2.03;;;8.80;99.90;;;;;;5014094;28;20073;-67
2022/05/04 05:34:05;;;;;;;7.37;1.70;;;8.90;99.90;;;;;;5004590;28;20045;-67
2022/05/04 05:36:31;;;;;;;4.13;1.33;;;8.90;99.90;;;;;;5012538;28;20091;-67
2022/05/04 05:38:56;;;;;;;7.53;2.00;;;8.90;99.90;;;;;;5011090;28;20664;-67
2022/05/04 05:41:23;;;;;;;8.87;2.10;;;8.90;99.90;;;;;;4998244;28;20099;-67
2022/05/04 05:43:49;;;;;;;;;;;8.90;99.90;;;;;;5020940;28;20064;-67
2022/05/04 05:46:18;;;;;;;5.05;1.58;;;8.90;99.90;;;;;;5003279;28;20456;-66
2022/05/04 05:48:45;;;;;;;9.18;1.63;;;8.90;99.90;;;;;;5027122;28;20033;-69
2022/05/04 05:51:11;;;;;;;9.55;2.15;;;8.90;99.90;;;;;;5001624;28;20050;-67
2022/05/04 05:53:36;;;;;;;4.93;1.70;;;9.00;99.90;;;;;;5008328;28;20114;-67
2022/05/04 05:56:02;;;;;;;5.93;1.60;;;8.90;99.90;;;;;;5019922;28;20483;-66
2022/05/04 05:58:28;;;;;;;8.67;2.37;;;8.90;99.90;;;;;;5018318;28;20043;-67
2022/05/04 06:00:53;;;;;;;9.80;1.90;;;8.80;99.90;;;;;;4999688;28;20417;-67
2022/05/04 06:03:19;;;;;;;5.93;1.50;;;8.90;99.90;;;;;;5021953;28;20504;-67
2022/05/04 06:05:44;;;;;;;4.40;2.00;;;8.90;99.90;;;;;;5020336;28;20061;-67
2022/05/04 06:08:10;;;;;;;16.50;2.30;;;8.90;99.90;;;;;;5015751;28;20041;-67
2022/05/04 06:10:37;;;;;;;4.72;1.75;;;9.00;99.90;;;;;;5021165;28;20552;-67
2022/05/04 06:13:03;;;;;;;7.30;1.42;;;9.00;99.90;;;;;;5020324;28;20497;-67
2022/05/04 06:15:28;;;;;;;10.15;1.60;;;9.00;99.90;;;;;;5003553;28;20033;-67
2022/05/04 06:17:54;;;;;;;7.43;1.80;;;9.10;99.90;;;;;;5014155;28;20087;-67
2022/05/04 06:20:20;;;;;;;9.50;1.70;;;9.10;99.90;;;;;;5017935;28;20386;-67
2022/05/04 06:22:45;;;;;;;4.65;1.80;;;9.10;99.70;;;;;;5021454;28;20307;-67
2022/05/04 06:25:11;;;;;;;10.33;1.77;;;9.10;98.90;;;;;;5068312;22;20041;-90
2022/05/04 06:27:40;;;;;;;8.05;1.50;;;9.20;98.70;;;;;;5015404;23;20041;-66
2022/05/04 06:35:34;;;;;;;4.28;1.70;;;9.10;97.30;;;;;;5007081;28;20046;-66
2022/05/04 06:38:00;;;;;;;7.23;1.47;;;9.20;97.80;;;;;;4993702;28;20061;-66
2022/05/04 06:40:25;;;;;;;6.20;1.90;;;9.20;96.90;;;;;;4983015;28;20077;-66
2022/05/04 06:42:51;;;;;;;5.90;1.50;;;9.20;96.70;;;;;;4998668;28;20534;-66
2022/05/04 06:45:17;;;;;;;6.83;1.87;;;9.20;96.30;;;;;;5003277;28;20045;-66
2022/05/04 06:47:43;;;;;;;7.80;1.87;;;9.30;96.30;;;;;;5000451;28;20042;-66
2022/05/04 06:50:10;;;;;;;6.70;1.50;;;9.30;95.60;;;;;;4994226;28;20050;-66
2022/05/04 06:52:37;;;;;;;8.73;1.30;;;9.30;95.50;;;;;;4997393;28;20042;-66
2022/05/04 06:55:03;;;;;;;6.63;1.30;;;9.40;94.80;;;;;;4981560;28;20056;-66
2022/05/04 06:57:29;;;;;;;7.22;1.40;;;9.40;94.40;;;;;;5006615;28;20097;-66
2022/05/04 06:59:55;;;;;;;10.85;1.88;;;9.30;92.20;;;;;;5010228;28;20073;-66
2022/05/04 07:02:21;;;;;;;4.15;1.42;;;9.40;93.40;;;;;;5000000;28;20563;-67
2022/05/04 07:04:47;;;;;;;5.13;1.43;;;9.40;93.40;;;;;;4998648;28;20080;-66
2022/05/04 07:07:12;;;;;;;3.85;1.40;;;9.40;92.80;;;;;;4990751;28;20490;-66
2022/05/04 07:09:38;;;;;;;9.00;2.07;;;9.50;93.60;;;;;;4998685;28;20049;-66
2022/05/04 07:12:04;;;;;;;10.73;1.33;;;9.50;94.40;;;;;;4980383;28;20148;-66
2022/05/04 07:14:30;;;;;;;5.28;1.40;;;9.60;94.70;;;;;;4999539;28;20092;-66
2022/05/04 07:16:56;;;;;;;9.73;1.43;;;9.70;94.60;;;;;;4997471;28;20081;-66
2022/05/04 07:19:21;;;;;;;4.93;1.63;;;9.80;94.30;;;;;;4991196;28;20483;-66
2022/05/04 07:21:47;;;;;;;6.57;1.60;;;9.80;93.80;;;;;;5004877;28;20065;-66
2022/05/04 07:24:12;;;;;;;5.23;1.17;;;9.80;92.60;;;;;;5005168;28;20117;-66
2022/05/04 07:26:40;;;;;;;6.07;1.73;;;9.80;91.60;;;;;;5009151;28;20037;-66
2022/05/04 07:29:06;;;;;;;12.93;3.22;;;9.90;91.70;;;;;;5001179;28;20057;-66
2022/05/04 07:31:31;;;;;;;7.57;1.27;;;9.90;93.00;;;;;;4995984;28;20402;-66
2022/05/04 07:33:57;;;;;;;4.20;1.83;;;10.00;93.10;;;;;;5005136;28;20038;-66
2022/05/04 07:36:22;;;;;;;5.13;1.73;;;10.00;92.90;;;;;;4993324;28;20380;-66
2022/05/04 07:38:48;;;;;;;3.57;1.70;;;10.10;92.30;;;;;;4988497;28;20388;-66
2022/05/04 07:43:59;;;;;;;7.45;1.75;;;10.10;91.40;;;;;;5002613;28;20404;-66
2022/05/04 07:46:27;;;;;;;9.63;1.95;;;10.20;91.80;;;;;;5000634;28;20065;-66
2022/05/04 07:48:53;;;;;;;7.63;2.58;;;10.20;91.50;;;;;;5001974;28;20116;-66
2022/05/04 07:51:18;;;;;;;4.25;1.40;;;10.30;91.40;;;;;;4992994;28;20108;-66
2022/05/04 07:53:44;;;;;;;4.10;1.27;;;10.30;91.10;;;;;;4995680;28;20041;-66
2022/05/04 07:56:10;;;;;;;6.83;1.33;;;10.30;90.90;;;;;;5002730;28;20034;-66
2022/05/04 07:58:35;;;;;;;10.07;2.17;;;10.30;90.70;;;;;;4988706;28;20516;-66
2022/05/04 08:06:29;;;;;;;6.70;1.90;;;10.40;90.00;;;;;;4990382;28;20645;-66
2022/05/04 08:08:55;;;;;;;5.57;1.33;;;10.40;90.00;;;;;;4987726;28;20049;-66
2022/05/04 08:11:21;;;;;;;3.90;1.30;;;10.40;88.00;;;;;;4992583;28;20049;-66
2022/05/04 08:13:46;;;;;;;5.80;1.30;;;10.40;88.10;;;;;;5004666;28;20038;-66
2022/05/04 08:16:13;;;;;;;8.07;1.77;;;10.40;88.60;;;;;;5009856;28;20041;-66
2022/05/04 08:18:42;;;;;;;5.22;1.52;;;10.50;89.50;;;;;;5003193;28;20046;-66
2022/05/04 08:21:08;;;;;;;6.60;1.33;;;10.50;86.00;;;;;;4993912;28;20084;-66
2022/05/04 08:23:34;;;;;;;10.32;1.48;;;10.50;88.20;;;;;;5002028;28;20038;-66
2022/05/04 08:26:01;;;;;;;8.90;1.42;;;10.60;86.70;;;;;;5006358;28;20046;-66
2022/05/04 08:28:27;;;;;;;5.53;1.65;;;10.60;86.60;;;;;;5010534;28;20123;-66
2022/05/04 08:30:52;;;;;;;8.50;1.80;;;10.70;85.70;;;;;;4995337;28;20042;-66
2022/05/04 08:33:18;;;;;;;8.60;1.30;;;10.80;86.80;;;;;;5011443;28;20033;-66
2022/05/04 08:35:44;;;;;;;6.72;1.25;;;10.80;87.30;;;;;;4999748;28;20045;-66
2022/05/04 08:38:10;;;;;;;5.80;1.58;;;10.90;87.10;;;;;;4986489;28;20606;-66
2022/05/04 08:40:37;;;;;;;7.82;2.45;;;11.00;86.70;;;;;;4988881;28;20046;-66
2022/05/04 08:43:05;;;;;;;4.70;1.30;;;11.10;85.40;;;;;;5003726;28;20092;-66
2022/05/04 08:45:35;;;;;;;5.57;1.40;;;11.10;84.80;;;;;;4992852;28;20042;-66
2022/05/04 08:48:02;;;;;;;6.80;1.60;;;11.20;85.10;;;;;;4999643;28;20031;-66
2022/05/04 08:50:28;;;;;;;7.03;1.55;;;11.20;81.90;;;;;;4973077;28;20042;-66
2022/05/04 08:52:54;;;;;;;7.07;1.40;;;11.10;80.40;;;;;;5009126;28;20426;-66
2022/05/04 08:55:21;;;;;;;9.52;1.73;;;11.00;81.50;;;;;;5005599;28;20476;-66
2022/05/04 08:57:47;;;;;;;7.75;1.30;;;11.10;82.60;;;;;;5001921;28;20120;-66
2022/05/04 09:00:14;;;;;;;6.32;2.28;;;11.10;83.90;;;;;;4987142;28;20038;-66
2022/05/04 09:02:39;;;;;;;;;;;11.10;83.10;;;;;;5001801;28;20042;-66
2022/05/04 09:05:20;;;;;;;5.22;1.50;;;11.10;81.40;;;;;;5002257;28;20267;-66
2022/05/04 09:07:48;;;;;;;6.40;1.40;;;11.20;85.30;;;;;;5004198;28;20438;-66
2022/05/04 09:10:22;;;;;;;9.55;1.55;;;11.20;84.10;;;;;;5006317;28;20042;-66
2022/05/04 09:12:50;;;;;;;4.35;1.50;;;11.40;84.60;;;;;;5011903;28;20041;-66
2022/05/04 09:15:17;;;;;;;9.00;2.55;;;11.30;80.70;;;;;;5006161;28;20226;-66
2022/05/04 09:17:43;;;;;;;6.50;1.88;;;11.40;83.90;;;;;;5003571;28;20522;-66
2022/05/04 09:22:53;;;;;;;6.18;1.60;;;11.60;82.50;;;;;;5000129;28;20550;-67
2022/05/04 09:25:19;;;;;;;5.90;1.43;;;11.70;80.80;;;;;;5000900;28;20049;-66
2022/05/04 09:27:48;;;;;;;5.47;1.77;;;11.70;81.40;;;;;;5004125;28;20438;-66
2022/05/04 09:30:15;;;;;;;3.05;1.50;;;11.70;81.30;;;;;;5007673;28;20042;-66
2022/05/04 09:32:41;;;;;;;6.72;1.60;;;11.70;77.70;;;;;;5011074;28;20088;-66
2022/05/04 09:35:11;;;;;;;;;;;11.60;77.80;;;;;;4997265;28;21596;-72
2022/05/04 09:45:55;;;;;;;6.40;2.55;;;11.90;80.40;;;;;;5012719;28;20057;-68
2022/05/04 09:48:32;;;;;;;8.32;1.67;;;12.20;75.00;;;;;;5018921;28;20087;-68
2022/05/04 09:51:05;;;;;;;5.63;1.67;;;12.30;74.00;;;;;;4996188;28;20070;-68
2022/05/04 09:53:32;;;;;;;9.38;1.77;;;12.40;73.90;;;;;;5000991;28;20051;-68
2022/05/04 09:55:58;;;;;;;5.82;2.05;;;12.40;75.00;;;;;;4996957;28;20065;-68
2022/05/04 09:58:27;;;;;;;4.35;1.40;;;12.50;74.10;;;;;;5012015;28;20041;-69
2022/05/04 10:00:55;;;;;;;5.47;1.77;;;12.60;75.60;;;;;;5005146;28;20034;-67
2022/05/04 10:03:21;;;;;;;9.70;1.88;;;12.70;73.40;;;;;;5005917;28;20045;-67
2022/05/04 10:05:47;;;;;;;;;;;12.70;72.30;;;;;;5004151;28;20038;-67
2022/05/04 10:08:13;;;;;;;6.80;1.63;;;12.60;69.20;;;;;;5013389;28;19971;-67
2022/05/04 10:10:40;;;;;;;4.53;1.70;;;12.60;72.30;;;;;;5006804;28;20045;-67
2022/05/04 10:13:07;;;;;;;6.22;1.65;;;12.50;72.50;;;;;;5007087;28;20091;-69
2022/05/04 10:15:34;;;;;;;7.00;1.63;;;12.40;71.80;;;;;;5007878;28;20045;-67
2022/05/04 10:18:03;;;;;;;6.38;2.08;;;12.40;71.30;;;;;;4986876;28;20053;-67
2022/05/04 10:20:41;;;;;;;4.65;1.90;;;12.50;72.60;;;;;;4989488;28;20050;-66
2022/05/04 10:23:24;;;;;;;5.72;1.92;;;12.50;71.80;;;;;;5005230;28;20041;-66
2022/05/04 10:25:52;;;;;;;10.70;2.67;;;12.70;72.00;;;;;;5005077;28;20047;-66
2022/05/04 10:28:18;;;;;;;6.70;1.73;;;12.80;70.50;;;;;;5003642;28;20042;-66
2022/05/04 10:30:58;;;;;;;5.05;1.42;;;13.00;69.40;;;;;;5004102;28;20475;-66
2022/05/04 10:33:30;;;;;;;4.32;1.80;;;12.90;65.00;;;;;;5014135;28;20045;-67
2022/05/04 10:35:56;;;;;;;4.50;2.03;;;12.80;67.20;;;;;;4999578;28;20045;-67
2022/05/04 10:38:27;;;;;;;4.93;1.60;;;12.80;67.60;;;;;;4985312;28;20100;-67
2022/05/04 10:41:05;;;;;;;7.03;1.80;;;12.90;67.10;;;;;;4999902;28;20517;-67
2022/05/04 10:43:47;;;;;;;6.03;1.98;;;12.90;67.90;;;;;;5001928;28;20037;-67
2022/05/04 10:46:17;;;;;;;8.75;1.85;;;12.90;67.20;;;;;;5009091;28;20477;-69
2022/05/04 10:48:55;;;;;;;8.10;2.20;;;12.90;66.80;;;;;;5004691;28;20065;-67
2022/05/04 10:51:22;;;;;;;7.05;1.63;;;12.90;67.50;;;;;;4978335;28;20084;-68
2022/05/04 10:54:08;;;;;;;5.00;1.88;;;13.00;67.80;;;;;;5001375;28;20495;-67
2022/05/04 10:56:48;;;;;;;4.07;1.63;;;13.10;66.30;;;;;;4991096;28;20057;-66
2022/05/04 10:59:29;;;;;;;7.03;1.70;;;13.20;65.70;;;;;;4988806;28;20482;-67
2022/05/04 11:01:57;;;;;;;9.38;2.05;;;13.30;65.40;;;;;;4981398;28;20042;-67
2022/05/04 11:04:24;;;;;;;5.93;1.98;;;13.40;65.50;;;;;;5002334;28;20524;-66
2022/05/04 11:06:53;;;;;;;6.53;1.90;;;13.50;63.50;;;;;;4974306;28;20398;-66
2022/05/04 11:09:20;;;;;;;7.20;1.75;;;13.50;62.20;;;;;;4991870;28;20030;-66
2022/05/04 11:11:51;;;;;;;3.58;1.70;;;13.50;63.10;;;;;;4992626;28;20046;-66
2022/05/04 11:14:19;;;;;;;5.55;1.90;;;13.60;63.00;;;;;;4998491;28;20087;-66
2022/05/04 11:16:45;;;;;;;6.07;1.83;;;13.80;64.40;;;;;;5008278;28;20503;-66
2022/05/04 11:19:12;;;;;;;8.90;2.85;;;13.90;64.30;;;;;;5001911;28;20045;-66
2022/05/04 11:21:39;;;;;;;6.15;1.88;;;14.10;65.00;;;;;;4994684;28;20034;-66
2022/05/04 11:24:15;;;;;;;2.97;1.40;;;14.30;64.10;;;;;;4998954;28;20060;-66
2022/05/04 11:26:50;;;;;;;7.45;1.95;;;14.50;64.40;;;;;;5003808;28;20045;-66
2022/05/04 11:29:22;;;;;;;7.03;1.95;;;14.60;61.90;;;;;;4999275;28;20052;-68
2022/05/04 11:31:56;;;;;;;7.78;2.30;;;14.40;60.10;;;;;;5012537;28;20096;-66
2022/05/04 11:34:24;;;;;;;7.85;2.22;;;14.30;61.40;;;;;;4998876;28;20126;-66
2022/05/04 11:36:51;;;;;;;7.95;2.08;;;14.30;61.70;;;;;;5002749;28;20113;-68
2022/05/04 11:39:20;;;;;;;5.15;2.00;;;14.20;60.80;;;;;;5004660;28;20558;-66
2022/05/04 11:41:47;;;;;;;4.38;2.38;;;14.10;60.30;;;;;;5009108;28;20041;-70
2022/05/04 11:44:14;;;;;;;8.90;3.88;;;14.20;61.50;;;;;;5007153;28;20774;-66
2022/05/04 11:46:42;;;;;;;6.35;1.83;;;14.30;61.90;;;;;;5004368;28;20059;-66
2022/05/04 11:49:09;;;;;;;4.78;1.77;;;14.40;62.20;;;;;;4995604;28;20036;-71
2022/05/04 11:51:35;;;;;;;9.55;2.67;;;14.60;62.00;;;;;;5007758;28;20050;-67
2022/05/04 11:54:01;;;;;;;4.90;2.25;;;14.70;60.90;;;;;;5005133;28;20044;-73
2022/05/04 11:56:26;;;;;;;7.07;2.70;;;14.80;59.70;;;;;;5004441;28;20088;-68
2022/05/04 11:58:52;;;;;;;8.07;2.37;;;14.70;59.00;;;;;;5005974;28;20495;-71
2022/05/04 12:01:19;;;;;;;7.53;2.55;;;14.70;58.70;;;;;;4989265;28;20563;-66
2022/05/04 12:03:44;;;;;;;;;;;14.80;59.20;;;;;;5007392;28;20042;-66
2022/05/04 12:06:11;;;;;;;6.93;2.38;;;14.90;58.00;;;;;;5003889;28;20340;-67
2022/05/04 12:08:41;;;;;;;6.10;2.72;;;14.90;59.20;;;;;;5006333;28;20031;-66
2022/05/04 12:11:07;;;;;;;6.50;2.22;;;15.00;58.60;;;;;;4985333;28;20054;-66
2022/05/04 12:13:35;;;;;;;;;;;15.10;59.20;;;;;;5006016;28;20035;-66
2022/05/04 12:16:01;;;;;;;;;;;15.20;58.50;;;;;;5000642;28;19994;-67
2022/05/04 12:18:32;;;;;;;6.45;2.00;;;15.30;56.20;;;;;;5007665;28;20051;-66
2022/05/04 12:21:11;;;;;;;7.05;2.20;;;15.40;58.40;;;;;;5006284;28;20049;-66
2022/05/04 12:23:42;;;;;;;7.47;2.67;;;15.50;58.20;;;;;;5012019;28;20426;-66
2022/05/04 12:26:10;;;;;;;6.55;2.42;;;15.60;57.90;;;;;;5029500;23;20037;-68
2022/05/04 12:28:37;;;;;;;6.82;3.15;;;15.70;57.70;;;;;;5044797;28;20048;-68
2022/05/04 12:33:50;;;;;;;4.28;2.00;;;15.70;56.90;;;;;;5038170;28;20307;-69
2022/05/04 12:36:18;;;;;;;7.53;2.72;;;15.60;56.10;;;;;;5030244;28;20068;-69
2022/05/04 12:38:49;;;;;;;4.97;2.33;;;15.70;55.20;;;;;;5017693;28;20176;-69
2022/05/04 12:41:17;;;;;;;9.02;2.60;;;15.80;56.30;;;;;;5031621;28;20041;-68
2022/05/04 12:43:44;;;;;;;9.10;2.50;;;15.90;55.90;;;;;;5044522;28;20120;-68
2022/05/04 12:46:10;;;;;;;;;;;16.10;55.70;;;;;;5046146;28;20127;-69
2022/05/04 12:48:46;;;;;;;8.40;2.75;;;16.20;54.10;;;;;;5041926;28;20364;-68
2022/05/04 12:51:14;;;;;;;5.20;2.53;;;16.40;54.00;;;;;;5039968;28;20048;-68
2022/05/04 12:53:40;;;;;;;11.32;2.88;;;16.40;54.00;;;;;;5042926;28;20036;-68
2022/05/04 12:58:52;;;;;;;6.57;2.85;;;16.40;53.10;;;;;;5049449;28;19927;-69
2022/05/04 13:01:24;;;;;;;8.98;3.00;;;16.30;53.80;;;;;;5028925;28;20128;-69
2022/05/04 13:03:50;;;;;;;12.38;2.42;;;16.30;52.90;;;;;;5043777;28;20056;-68
2022/05/04 13:06:19;;;;;;;;;;;16.20;53.90;;;;;;5048142;28;20037;-68
2022/05/04 13:08:48;;;;;;;6.47;2.75;;;16.20;53.20;;;;;;5046894;28;19928;-68
2022/05/04 13:11:17;;;;;;;6.15;2.30;;;16.40;54.80;;;;;;5025038;28;20068;-68
2022/05/04 13:13:42;;;;;;;7.72;2.65;;;16.20;54.00;;;;;;5040204;28;20444;-68
2022/05/04 13:16:08;;;;;;;7.55;2.50;;;16.10;54.70;;;;;;5036505;28;20045;-69
2022/05/04 13:18:34;;;;;;;10.90;2.75;;;16.30;55.40;;;;;;5043117;28;20250;-68
2022/05/04 13:20:59;;;;;;;7.20;2.40;;;16.50;54.90;;;;;;5043984;28;20037;-68
2022/05/04 13:23:25;;;;;;;4.33;3.07;;;16.70;54.80;;;;;;5037384;28;20295;-68
2022/05/04 13:25:51;;;;;;;8.07;2.90;;;16.90;53.40;;;;;;5044175;28;20080;-68
2022/05/04 13:28:17;;;;;;;4.80;2.53;;;16.90;53.10;;;;;;5041538;28;20037;-68
2022/05/04 13:30:42;;;;;;;8.68;2.97;;;17.10;53.30;;;;;;5035231;28;20041;-68
2022/05/04 13:33:08;;;;;;;8.13;2.65;;;17.20;51.90;;;;;;5040418;28;20045;-68